sensor_id;sensor_type;location;lat;lon;timestamp;P1;durP1;ratioP1;P2;durP2;ratioP2
67344;SDS011;54230;52.402;6.276;2024-03-23T00:55:00;25.8;;;6.7;;
67344;SDS011;54230;52.402;6.276;2024-03-23T01:00:00;34.9;;;6.5;;
67344;SDS011;54230;52.402;6.276;2024-03-23T01:05:00;31.9;;;6.8;;
67344;SDS011;54230;52.402;6.276;2024-03-23T01:10:00;37.1;;;6.7;;
67344;SDS011;54230;52.402;6.276;2024-03-23T01:15:00;28.8;;;6.8;;
67344;SDS011;54230;52.402;6.276;2024-03-23T01:20:00;26.1;;;5.9;;
67344;SDS011;54230;52.402;6.276;2024-03-23T01:25:00;32.4;;;6.4;;
67344;SDS011;54230;52.402;6.276;2024-03-23T01:30:00;30.0;;;6.2;;
67344;SDS011;54230;52.402;6.276;2024-03-23T01:35:00;29.9;;;6.4;;
67344;SDS011;54230;52.402;6.276;2024-03-23T01:40:00;34.0;;;6.5;;
67344;SDS011;54230;52.402;6.276;2024-03-23T01:45:00;27.9;;;6.7;;
67344;SDS011;54230;52.402;6.276;2024-03-23T01:50:00;31.2;;;7.3;;
67344;SDS011;54230;52.402;6.276;2024-03-23T01:55:00;29.5;;;6.5;;
67344;SDS011;54230;52.402;6.276;2024-03-23T02:00:00;27.9;;;6.9;;
67344;SDS011;54230;52.402;6.276;2024-03-23T02:05:00;29.1;;;7.6;;
67344;SDS011;54230;52.402;6.276;2024-03-23T02:10:00;24.5;;;6.5;;
67344;SDS011;54230;52.402;6.276;2024-03-23T02:15:00;30.8;;;7.3;;
67344;SDS011;54230;52.402;6.276;2024-03-23T02:20:00;30.8;;;7.5;;
67344;SDS011;54230;52.402;6.276;2024-03-23T02:25:00;31.6;;;8.0;;
67344;SDS011;54230;52.402;6.276;2024-03-23T02:30:00;29.3;;;7.3;;
67344;SDS011;54230;52.402;6.276;2024-03-23T02:35:00;29.6;;;7.8;;
67344;SDS011;54230;52.402;6.276;2024-03-23T02:40:00;38.5;;;8.6;;
67344;SDS011;54230;52.402;6.276;2024-03-23T02:45:00;30.8;;;8.4;;
67344;SDS011;54230;52.402;6.276;2024-03-23T02:50:00;33.1;;;8.8;;
67344;SDS011;54230;52.402;6.276;2024-03-23T02:55:00;34.9;;;8.4;;
67344;SDS011;54230;52.402;6.276;2024-03-23T03:00:00;38.8;;;9.7;;
67344;SDS011;54230;52.402;6.276;2024-03-23T03:05:00;39.7;;;8.8;;
67344;SDS011;54230;52.402;6.276;2024-03-23T03:10:00;36.1;;;8.2;;
67344;SDS011;54230;52.402;6.276;2024-03-23T03:15:00;33.6;;;8.8;;
67344;SDS011;54230;52.402;6.276;2024-03-23T03:20:00;39.5;;;8.4;;
67344;SDS011;54230;52.402;6.276;2024-03-23T03:25:00;35.3;;;8.5;;
67344;SDS011;54230;52.402;6.276;2024-03-23T03:30:00;32.7;;;8.2;;
67344;SDS011;54230;52.402;6.276;2024-03-23T03:35:00;33.9;;;8.6;;
67344;SDS011;54230;52.402;6.276;2024-03-23T03:40:00;37.7;;;8.4;;
67344;SDS011;54230;52.402;6.276;2024-03-23T03:45:00;29.8;;;8.5;;
67344;SDS011;54230;52.402;6.276;2024-03-23T03:50:00;31.9;;;8.0;;
67344;SDS011;54230;52.402;6.276;2024-03-23T03:55:01;38.3;;;8.2;;
67344;SDS011;54230;52.402;6.276;2024-03-23T04:00:00;34.2;;;8.4;;
67344;SDS011;54230;52.402;6.276;2024-03-23T04:05:00;39.2;;;8.5;;
67344;SDS011;54230;52.402;6.276;2024-03-23T04:10:00;38.7;;;8.3;;
67344;SDS011;54230;52.402;6.276;2024-03-23T04:15:01;38.8;;;8.8;;
67344;SDS011;54230;52.402;6.276;2024-03-23T04:20:00;37.2;;;8.9;;
67344;SDS011;54230;52.402;6.276;2024-03-23T04:25:00;32.0;;;8.3;;
67344;SDS011;54230;52.402;6.276;2024-03-23T04:30:00;35.3;;;8.8;;
67344;SDS011;54230;52.402;6.276;2024-03-23T04:35:00;38.3;;;8.5;;
67344;SDS011;54230;52.402;6.276;2024-03-23T04:40:00;34.3;;;8.7;;
67344;SDS011;54230;52.402;6.276;2024-03-23T04:45:00;32.0;;;8.8;;
67344;SDS011;54230;52.402;6.276;2024-03-23T04:50:00;36.7;;;9.1;;
67344;SDS011;54230;52.402;6.276;2024-03-23T04:55:00;32.3;;;9.2;;
67344;SDS011;54230;52.402;6.276;2024-03-23T05:00:00;34.2;;;9.0;;
67344;SDS011;54230;52.402;6.276;2024-03-23T05:05:00;39.3;;;9.9;;
67344;SDS011;54230;52.402;6.276;2024-03-23T05:10:00;35.7;;;9.7;;
67344;SDS011;54230;52.402;6.276;2024-03-23T05:15:00;32.3;;;10.2;;
67344;SDS011;54230;52.402;6.276;2024-03-23T05:20:00;35.2;;;9.8;;
67344;SDS011;54230;52.402;6.276;2024-03-23T05:25:00;40.6;;;10.8;;
67344;SDS011;54230;52.402;6.276;2024-03-23T05:30:00;40.8;;;10.8;;
67344;SDS011;54230;52.402;6.276;2024-03-23T05:35:00;39.8;;;10.7;;
67344;SDS011;54230;52.402;6.276;2024-03-23T05:40:00;40.9;;;10.8;;
67344;SDS011;54230;52.402;6.276;2024-03-23T05:45:00;38.4;;;10.0;;
67344;SDS011;54230;52.402;6.276;2024-03-23T05:50:00;40.4;;;10.4;;
67344;SDS011;54230;52.402;6.276;2024-03-23T05:55:00;33.3;;;10.2;;
67344;SDS011;54230;52.402;6.276;2024-03-23T06:00:00;34.1;;;9.7;;
67344;SDS011;54230;52.402;6.276;2024-03-23T06:05:00;33.1;;;9.8;;
67344;SDS011;54230;52.402;6.276;2024-03-23T06:10:00;35.3;;;8.8;;
67344;SDS011;54230;52.402;6.276;2024-03-23T06:15:00;30.7;;;8.4;;
67344;SDS011;54230;52.402;6.276;2024-03-23T06:20:00;27.6;;;7.9;;
67344;SDS011;54230;52.402;6.276;2024-03-23T06:25:00;27.3;;;7.1;;
67344;SDS011;54230;52.402;6.276;2024-03-23T06:30:00;25.1;;;7.0;;
67344;SDS011;54230;52.402;6.276;2024-03-23T06:35:00;24.6;;;6.4;;
67344;SDS011;54230;52.402;6.276;2024-03-23T06:40:00;15.2;;;4.7;;
67344;SDS011;54230;52.402;6.276;2024-03-23T06:45:00;12.4;;;3.0;;
67344;SDS011;54230;52.402;6.276;2024-03-23T06:50:00;8.7;;;2.6;;
67344;SDS011;54230;52.402;6.276;2024-03-23T06:55:00;10.2;;;2.3;;
67344;SDS011;54230;52.402;6.276;2024-03-23T07:00:00;9.9;;;1.9;;
67344;SDS011;54230;52.402;6.276;2024-03-23T07:05:00;7.4;;;2.0;;
67344;SDS011;54230;52.402;6.276;2024-03-23T07:10:00;8.2;;;2.3;;
67344;SDS011;54230;52.402;6.276;2024-03-23T07:15:00;9.4;;;2.4;;
67344;SDS011;54230;52.402;6.276;2024-03-23T07:20:00;10.1;;;2.6;;
67344;SDS011;54230;52.402;6.276;2024-03-23T07:25:00;8.1;;;3.2;;
67344;SDS011;54230;52.402;6.276;2024-03-23T07:30:01;8.1;;;2.3;;
67344;SDS011;54230;52.402;6.276;2024-03-23T07:35:00;10.0;;;2.8;;
67344;SDS011;54230;52.402;6.276;2024-03-23T07:40:00;13.4;;;3.0;;
67344;SDS011;54230;52.402;6.276;2024-03-23T07:45:00;10.6;;;3.1;;
67344;SDS011;54230;52.402;6.276;2024-03-23T07:50:00;10.8;;;3.3;;
67344;SDS011;54230;52.402;6.276;2024-03-23T07:55:00;15.2;;;3.9;;
67344;SDS011;54230;52.402;6.276;2024-03-23T08:00:00;17.2;;;4.3;;
67344;SDS011;54230;52.402;6.276;2024-03-23T08:05:00;20.0;;;4.8;;
67344;SDS011;54230;52.402;6.276;2024-03-23T08:10:00;17.6;;;4.7;;
67344;SDS011;54230;52.402;6.276;2024-03-23T08:15:00;17.1;;;4.5;;
67344;SDS011;54230;52.402;6.276;2024-03-23T08:20:00;12.8;;;3.6;;
67344;SDS011;54230;52.402;6.276;2024-03-23T08:25:00;12.1;;;3.7;;
67344;SDS011;54230;52.402;6.276;2024-03-23T08:30:00;13.8;;;3.9;;
67344;SDS011;54230;52.402;6.276;2024-03-23T08:35:00;18.9;;;4.9;;
67344;SDS011;54230;52.402;6.276;2024-03-23T08:40:00;16.9;;;5.0;;
67344;SDS011;54230;52.402;6.276;2024-03-23T08:45:00;18.5;;;4.8;;
67344;SDS011;54230;52.402;6.276;2024-03-23T08:50:00;17.2;;;4.8;;
67344;SDS011;54230;52.402;6.276;2024-03-23T08:55:00;16.4;;;4.5;;
67344;SDS011;54230;52.402;6.276;2024-03-23T09:00:00;21.4;;;5.0;;
67344;SDS011;54230;52.402;6.276;2024-03-23T09:05:00;13.8;;;3.2;;
67344;SDS011;54230;52.402;6.276;2024-03-23T09:10:00;8.5;;;3.0;;
67344;SDS011;54230;52.402;6.276;2024-03-23T09:15:00;12.0;;;3.9;;
67344;SDS011;54230;52.402;6.276;2024-03-23T09:20:00;16.7;;;4.6;;
67344;SDS011;54230;52.402;6.276;2024-03-23T09:25:00;16.9;;;4.5;;
67344;SDS011;54230;52.402;6.276;2024-03-23T09:30:00;12.4;;;4.0;;
67344;SDS011;54230;52.402;6.276;2024-03-23T09:35:00;13.9;;;4.1;;
67344;SDS011;54230;52.402;6.276;2024-03-23T09:40:00;10.1;;;3.4;;
67344;SDS011;54230;52.402;6.276;2024-03-23T09:45:00;11.2;;;3.2;;
67344;SDS011;54230;52.402;6.276;2024-03-23T09:50:00;9.8;;;2.8;;
67344;SDS011;54230;52.402;6.276;2024-03-23T09:55:00;11.6;;;2.6;;
67344;SDS011;54230;52.402;6.276;2024-03-23T10:00:00;10.4;;;2.8;;
67344;SDS011;54230;52.402;6.276;2024-03-23T10:05:00;9.2;;;2.3;;
67344;SDS011;54230;52.402;6.276;2024-03-23T10:10:02;9.7;;;2.1;;
67344;SDS011;54230;52.402;6.276;2024-03-23T10:15:00;8.3;;;2.0;;
67344;SDS011;54230;52.402;6.276;2024-03-23T10:20:00;5.3;;;1.5;;
67344;SDS011;54230;52.402;6.276;2024-03-23T10:25:06;3.5;;;1.4;;
67344;SDS011;54230;52.402;6.276;2024-03-23T10:30:07;4.4;;;1.2;;
67344;SDS011;54230;52.402;6.276;2024-03-23T10:40:00;6.7;;;1.7;;
67344;SDS011;54230;52.402;6.276;2024-03-23T10:45:00;8.5;;;1.8;;
67344;SDS011;54230;52.402;6.276;2024-03-23T10:50:00;8.9;;;2.0;;
67344;SDS011;54230;52.402;6.276;2024-03-23T10:55:00;8.2;;;2.0;;
67344;SDS011;54230;52.402;6.276;2024-03-23T11:00:01;8.3;;;2.1;;
67344;SDS011;54230;52.402;6.276;2024-03-23T11:05:00;5.3;;;1.7;;
67344;SDS011;54230;52.402;6.276;2024-03-23T11:10:00;5.0;;;1.5;;
67344;SDS011;54230;52.402;6.276;2024-03-23T11:15:01;5.2;;;1.6;;
67344;SDS011;54230;52.402;6.276;2024-03-23T11:20:00;7.4;;;1.7;;
67344;SDS011;54230;52.402;6.276;2024-03-23T11:25:00;6.1;;;1.8;;
67344;SDS011;54230;52.402;6.276;2024-03-23T11:30:09;8.0;;;2.0;;
67344;SDS011;54230;52.402;6.276;2024-03-23T11:35:00;6.9;;;1.9;;
67344;SDS011;54230;52.402;6.276;2024-03-23T11:40:00;18.6;;;2.8;;
67344;SDS011;54230;52.402;6.276;2024-03-23T11:45:06;12.3;;;2.5;;
67344;SDS011;54230;52.402;6.276;2024-03-23T11:50:00;10.0;;;2.4;;
67344;SDS011;54230;52.402;6.276;2024-03-23T11:55:04;10.6;;;2.4;;
67344;SDS011;54230;52.402;6.276;2024-03-23T12:00:00;6.4;;;1.5;;
67344;SDS011;54230;52.402;6.276;2024-03-23T12:10:03;5.1;;;1.4;;
67344;SDS011;54230;52.402;6.276;2024-03-23T12:15:01;9.0;;;2.0;;
67344;SDS011;54230;52.402;6.276;2024-03-23T12:20:00;8.6;;;1.9;;
67344;SDS011;54230;52.402;6.276;2024-03-23T12:25:00;10.4;;;2.1;;
67344;SDS011;54230;52.402;6.276;2024-03-23T12:30:01;17.7;;;2.4;;
67344;SDS011;54230;52.402;6.276;2024-03-23T12:35:00;13.0;;;2.4;;
67344;SDS011;54230;52.402;6.276;2024-03-23T12:40:00;12.0;;;2.6;;
67344;SDS011;54230;52.402;6.276;2024-03-23T12:45:00;14.0;;;2.7;;
67344;SDS011;54230;52.402;6.276;2024-03-23T12:50:00;13.0;;;2.8;;
67344;SDS011;54230;52.402;6.276;2024-03-23T12:55:00;14.4;;;2.5;;
67344;SDS011;54230;52.402;6.276;2024-03-23T13:00:00;12.0;;;2.6;;
67344;SDS011;54230;52.402;6.276;2024-03-23T13:05:00;14.1;;;2.7;;
67344;SDS011;54230;52.402;6.276;2024-03-23T13:10:00;8.5;;;2.2;;
67344;SDS011;54230;52.402;6.276;2024-03-23T13:15:00;8.6;;;2.0;;
67344;SDS011;54230;52.402;6.276;2024-03-23T13:20:00;7.6;;;1.7;;
67344;SDS011;54230;52.402;6.276;2024-03-23T13:25:00;8.6;;;2.3;;
67344;SDS011;54230;52.402;6.276;2024-03-23T13:30:00;8.5;;;2.0;;
67344;SDS011;54230;52.402;6.276;2024-03-23T13:35:00;9.4;;;2.2;;
67344;SDS011;54230;52.402;6.276;2024-03-23T13:40:00;6.1;;;1.6;;
67344;SDS011;54230;52.402;6.276;2024-03-23T13:45:00;7.4;;;1.6;;
67344;SDS011;54230;52.402;6.276;2024-03-23T13:50:00;4.6;;;1.2;;
67344;SDS011;54230;52.402;6.276;2024-03-23T13:55:00;3.8;;;1.1;;
67344;SDS011;54230;52.402;6.276;2024-03-23T14:00:00;4.1;;;1.3;;
67344;SDS011;54230;52.402;6.276;2024-03-23T14:05:01;5.0;;;1.3;;
67344;SDS011;54230;52.402;6.276;2024-03-23T14:10:02;4.3;;;1.4;;
67344;SDS011;54230;52.402;6.276;2024-03-23T14:15:00;3.2;;;1.3;;
67344;SDS011;54230;52.402;6.276;2024-03-23T14:20:00;7.0;;;1.5;;
67344;SDS011;54230;52.402;6.276;2024-03-23T14:25:00;6.7;;;1.5;;
67344;SDS011;54230;52.402;6.276;2024-03-23T14:30:00;9.2;;;2.0;;
67344;SDS011;54230;52.402;6.276;2024-03-23T14:35:00;7.3;;;1.8;;
67344;SDS011;54230;52.402;6.276;2024-03-23T14:40:00;9.7;;;2.1;;
67344;SDS011;54230;52.402;6.276;2024-03-23T14:45:00;9.9;;;2.0;;
67344;SDS011;54230;52.402;6.276;2024-03-23T14:50:00;6.8;;;1.5;;
67344;SDS011;54230;52.402;6.276;2024-03-23T14:55:00;5.9;;;1.5;;
67344;SDS011;54230;52.402;6.276;2024-03-23T15:00:00;5.2;;;1.4;;
67344;SDS011;54230;52.402;6.276;2024-03-23T15:05:00;6.5;;;1.5;;
67344;SDS011;54230;52.402;6.276;2024-03-23T15:10:00;4.5;;;1.6;;
67344;SDS011;54230;52.402;6.276;2024-03-23T15:15:00;7.0;;;1.6;;
67344;SDS011;54230;52.402;6.276;2024-03-23T15:20:00;6.0;;;1.7;;
67344;SDS011;54230;52.402;6.276;2024-03-23T15:25:00;7.4;;;2.0;;
67344;SDS011;54230;52.402;6.276;2024-03-23T15:30:00;9.0;;;1.8;;
67344;SDS011;54230;52.402;6.276;2024-03-23T15:35:00;9.4;;;2.0;;
67344;SDS011;54230;52.402;6.276;2024-03-23T15:40:00;7.5;;;2.0;;
67344;SDS011;54230;52.402;6.276;2024-03-23T15:45:00;6.4;;;1.4;;
67344;SDS011;54230;52.402;6.276;2024-03-23T15:50:00;5.9;;;1.5;;
67344;SDS011;54230;52.402;6.276;2024-03-23T15:55:00;7.2;;;2.0;;
67344;SDS011;54230;52.402;6.276;2024-03-23T16:00:00;6.5;;;2.2;;
67344;SDS011;54230;52.402;6.276;2024-03-23T16:05:00;6.3;;;1.6;;
67344;SDS011;54230;52.402;6.276;2024-03-23T16:10:00;7.7;;;2.8;;
67344;SDS011;54230;52.402;6.276;2024-03-23T16:15:00;5.9;;;1.7;;
67344;SDS011;54230;52.402;6.276;2024-03-23T16:20:00;5.6;;;1.6;;
67344;SDS011;54230;52.402;6.276;2024-03-23T16:25:00;7.1;;;1.8;;
67344;SDS011;54230;52.402;6.276;2024-03-23T16:30:00;7.2;;;2.0;;
67344;SDS011;54230;52.402;6.276;2024-03-23T16:35:00;7.1;;;2.0;;
67344;SDS011;54230;52.402;6.276;2024-03-23T16:40:00;8.1;;;2.3;;
67344;SDS011;54230;52.402;6.276;2024-03-23T16:45:00;9.2;;;3.0;;
67344;SDS011;54230;52.402;6.276;2024-03-23T16:50:00;8.3;;;3.1;;
67344;SDS011;54230;52.402;6.276;2024-03-23T16:55:00;8.4;;;2.8;;
67344;SDS011;54230;52.402;6.276;2024-03-23T17:00:00;10.0;;;2.8;;
67344;SDS011;54230;52.402;6.276;2024-03-23T17:05:00;7.5;;;2.2;;
67344;SDS011;54230;52.402;6.276;2024-03-23T17:10:00;11.0;;;3.1;;
67344;SDS011;54230;52.402;6.276;2024-03-23T17:15:03;11.5;;;3.1;;
67344;SDS011;54230;52.402;6.276;2024-03-23T17:20:00;15.2;;;3.3;;
67344;SDS011;54230;52.402;6.276;2024-03-23T17:25:00;8.3;;;2.2;;
67344;SDS011;54230;52.402;6.276;2024-03-23T17:30:00;6.7;;;1.8;;
67344;SDS011;54230;52.402;6.276;2024-03-23T17:35:00;10.1;;;2.6;;
67344;SDS011;54230;52.402;6.276;2024-03-23T17:40:00;13.0;;;2.4;;
67344;SDS011;54230;52.402;6.276;2024-03-23T17:45:01;7.4;;;2.1;;
67344;SDS011;54230;52.402;6.276;2024-03-23T17:50:00;8.2;;;2.1;;
67344;SDS011;54230;52.402;6.276;2024-03-23T17:55:00;6.1;;;1.6;;
67344;SDS011;54230;52.402;6.276;2024-03-23T18:00:00;5.5;;;1.7;;
67344;SDS011;54230;52.402;6.276;2024-03-23T18:05:00;5.9;;;1.8;;
67344;SDS011;54230;52.402;6.276;2024-03-23T18:10:00;6.7;;;1.8;;
67344;SDS011;54230;52.402;6.276;2024-03-23T18:15:00;4.8;;;1.8;;
67344;SDS011;54230;52.402;6.276;2024-03-23T18:20:00;5.7;;;1.9;;
67344;SDS011;54230;52.402;6.276;2024-03-23T18:25:00;5.0;;;1.8;;
67344;SDS011;54230;52.402;6.276;2024-03-23T18:30:00;6.3;;;2.1;;
67344;SDS011;54230;52.402;6.276;2024-03-23T18:35:00;6.6;;;2.0;;
67344;SDS011;54230;52.402;6.276;2024-03-23T18:40:00;6.5;;;2.2;;
67344;SDS011;54230;52.402;6.276;2024-03-23T18:45:00;5.0;;;1.9;;
67344;SDS011;54230;52.402;6.276;2024-03-23T18:50:00;5.8;;;2.2;;
67344;SDS011;54230;52.402;6.276;2024-03-23T18:55:00;7.3;;;2.0;;
67344;SDS011;54230;52.402;6.276;2024-03-23T19:00:00;5.5;;;1.9;;
67344;SDS011;54230;52.402;6.276;2024-03-23T19:05:00;6.9;;;2.0;;
67344;SDS011;54230;52.402;6.276;2024-03-23T19:10:00;8.8;;;2.4;;
67344;SDS011;54230;52.402;6.276;2024-03-23T19:15:00;8.2;;;2.2;;
67344;SDS011;54230;52.402;6.276;2024-03-23T19:20:00;4.8;;;1.8;;
67344;SDS011;54230;52.402;6.276;2024-03-23T19:25:00;7.3;;;2.5;;
67344;SDS011;54230;52.402;6.276;2024-03-23T19:30:00;5.7;;;2.2;;
67344;SDS011;54230;52.402;6.276;2024-03-23T19:35:00;6.0;;;2.4;;
67344;SDS011;54230;52.402;6.276;2024-03-23T19:40:00;5.6;;;2.0;;
67344;SDS011;54230;52.402;6.276;2024-03-23T19:45:00;4.6;;;1.6;;
67344;SDS011;54230;52.402;6.276;2024-03-23T19:50:00;4.7;;;1.5;;
67344;SDS011;54230;52.402;6.276;2024-03-23T19:55:00;5.1;;;1.9;;
67344;SDS011;54230;52.402;6.276;2024-03-23T20:00:00;5.4;;;2.1;;
67344;SDS011;54230;52.402;6.276;2024-03-23T20:05:00;7.1;;;2.5;;
67344;SDS011;54230;52.402;6.276;2024-03-23T20:10:00;8.0;;;2.5;;
67344;SDS011;54230;52.402;6.276;2024-03-23T20:15:00;6.1;;;2.7;;
67344;SDS011;54230;52.402;6.276;2024-03-23T20:20:00;6.7;;;2.7;;
67344;SDS011;54230;52.402;6.276;2024-03-23T20:25:00;7.8;;;3.3;;
67344;SDS011;54230;52.402;6.276;2024-03-23T20:30:00;8.1;;;3.0;;
67344;SDS011;54230;52.402;6.276;2024-03-23T20:35:00;8.2;;;3.3;;
67344;SDS011;54230;52.402;6.276;2024-03-23T20:40:00;10.2;;;3.6;;
67344;SDS011;54230;52.402;6.276;2024-03-23T20:45:00;9.8;;;4.0;;
67344;SDS011;54230;52.402;6.276;2024-03-23T20:50:00;10.8;;;4.0;;
67344;SDS011;54230;52.402;6.276;2024-03-23T20:55:00;7.2;;;3.7;;
67344;SDS011;54230;52.402;6.276;2024-03-23T21:00:00;10.4;;;3.9;;
67344;SDS011;54230;52.402;6.276;2024-03-23T21:05:00;9.5;;;3.8;;
67344;SDS011;54230;52.402;6.276;2024-03-23T21:10:00;11.8;;;4.1;;
67344;SDS011;54230;52.402;6.276;2024-03-23T21:15:00;10.0;;;3.8;;
67344;SDS011;54230;52.402;6.276;2024-03-23T21:20:00;10.9;;;4.0;;
67344;SDS011;54230;52.402;6.276;2024-03-23T21:25:00;11.8;;;4.6;;
67344;SDS011;54230;52.402;6.276;2024-03-23T21:30:00;8.9;;;4.1;;
67344;SDS011;54230;52.402;6.276;2024-03-23T21:35:00;14.5;;;4.5;;
67344;SDS011;54230;52.402;6.276;2024-03-23T21:40:00;12.7;;;4.0;;
67344;SDS011;54230;52.402;6.276;2024-03-23T21:45:00;9.5;;;3.5;;
67344;SDS011;54230;52.402;6.276;2024-03-23T21:50:00;11.6;;;4.3;;
67344;SDS011;54230;52.402;6.276;2024-03-23T21:55:00;10.6;;;3.7;;
67344;SDS011;54230;52.402;6.276;2024-03-23T22:00:00;10.5;;;4.0;;
67344;SDS011;54230;52.402;6.276;2024-03-23T22:05:00;7.6;;;3.7;;
67344;SDS011;54230;52.402;6.276;2024-03-23T22:10:00;9.6;;;3.8;;
67344;SDS011;54230;52.402;6.276;2024-03-23T22:15:00;10.7;;;4.3;;
67344;SDS011;54230;52.402;6.276;2024-03-23T22:20:00;11.3;;;4.6;;
67344;SDS011;54230;52.402;6.276;2024-03-23T22:25:00;15.9;;;5.2;;
67344;SDS011;54230;52.402;6.276;2024-03-23T22:30:00;10.6;;;4.8;;
67344;SDS011;54230;52.402;6.276;2024-03-23T22:35:00;12.7;;;4.0;;
67344;SDS011;54230;52.402;6.276;2024-03-23T22:40:00;12.1;;;4.4;;
67344;SDS011;54230;52.402;6.276;2024-03-23T22:45:00;13.2;;;4.7;;
67344;SDS011;54230;52.402;6.276;2024-03-23T22:50:00;12.8;;;4.4;;
67344;SDS011;54230;52.402;6.276;2024-03-23T22:55:00;11.4;;;4.0;;
67344;SDS011;54230;52.402;6.276;2024-03-23T23:00:00;10.1;;;3.9;;
67344;SDS011;54230;52.402;6.276;2024-03-23T23:05:00;11.8;;;4.3;;
67344;SDS011;54230;52.402;6.276;2024-03-23T23:10:00;11.4;;;4.3;;
67344;SDS011;54230;52.402;6.276;2024-03-23T23:15:00;10.1;;;4.2;;
67344;SDS011;54230;52.402;6.276;2024-03-23T23:20:00;12.4;;;4.4;;
67344;SDS011;54230;52.402;6.276;2024-03-23T23:25:00;14.0;;;4.2;;
67344;SDS011;54230;52.402;6.276;2024-03-23T23:30:00;9.5;;;3.9;;
67344;SDS011;54230;52.402;6.276;2024-03-23T23:35:01;10.7;;;4.3;;
67344;SDS011;54230;52.402;6.276;2024-03-23T23:40:00;13.7;;;4.5;;
67344;SDS011;54230;52.402;6.276;2024-03-23T23:45:00;11.1;;;4.6;;
67344;SDS011;54230;52.402;6.276;2024-03-23T23:50:00;10.8;;;4.6;;
67344;SDS011;54230;52.402;6.276;2024-03-23T23:55:00;14.3;;;5.1;;
